Antonios — SY8410 — position and weather

sailwx.info

Track history (hours):
 
Tides and Currents Weather Stations Pressure Air Temp Water Temp Dewpoint Dewpoint Depression Visibility Wind Speed Wind Dir Waves Ship Positions

Antonios

Last reported at 2017-Apr-13 03:33 UTC. Time now 2017-Apr-26 04:12 UTC.
Position N 37°18' E 025°10'.
Warning: this ship's position is 13 days out of date.

Length 57 m; draft 4 m.

Type: Tanker. MMSI: 239191300.

Date/timePositionNaut miles runAvg speedWind from/ knotsBaromVisibWave heightAir tempDewpointWater temp
2017-Apr-13 03:33N 37°18' E 025°10'0 9.6
2017-Apr-13 03:31N 37°18' E 025°09'5 9.6
2017-Apr-13 03:01N 37°19' E 025°03'5 9.7
2017-Apr-13 02:30N 37°20' E 024°57'5 9.9
2017-Apr-13 02:00N 37°21' E 024°51'5 9.8
2017-Apr-13 01:30N 37°23' E 024°45'50 9.6
2017-Apr-12 20:16N 37°36' E 023°45'3 9.4
2017-Apr-12 20:00N 37°37' E 023°41'5 9.6
2017-Apr-12 19:30N 37°38' E 023°36'5 9.8
2017-Apr-12 19:00N 37°39' E 023°29'5 9.8
2017-Apr-12 18:31N 37°39' E 023°23'5 9.2
2017-Apr-12 18:00N 37°41' E 023°18'5 9.7
2017-Apr-12 17:30N 37°45' E 023°15'5 9.8
2017-Apr-12 17:00N 37°49' E 023°11'5 9.7
2017-Apr-12 16:31N 37°53' E 023°08'3 5.2
2017-Apr-12 15:58N 37°55' E 023°05'0 0.0
2017-Apr-12 15:29N 37°55' E 023°05'0 0.0
2017-Apr-12 14:58N 37°55' E 023°05'0 0.0
2017-Apr-12 13:57N 37°55' E 023°05'0 0.0
2017-Apr-12 13:30N 37°55' E 023°05'0 0.0
2017-Apr-12 13:00N 37°55' E 023°05'0 0.0
2017-Apr-12 12:30N 37°55' E 023°05'0 0.0
2017-Apr-12 11:59N 37°55' E 023°05'0 0.0
2017-Apr-12 11:30N 37°55' E 023°05'0 0.0
2017-Apr-12 11:00N 37°55' E 023°05'0 0.0
2017-Apr-12 10:30N 37°55' E 023°05'0 0.0
2017-Apr-12 09:54N 37°55' E 023°05'0 0.0
2017-Apr-12 09:31N 37°55' E 023°05'3 5.3
2017-Apr-12 09:01N 37°53' E 023°08'510.5
2017-Apr-12 08:31N 37°49' E 023°12'510.7
2017-Apr-12 08:01N 37°44' E 023°15'510.5
2017-Apr-12 07:30N 37°40' E 023°19'510.3
2017-Apr-12 07:01N 37°39' E 023°26'510.5
2017-Apr-12 06:30N 37°38' E 023°32'510.4
2017-Apr-12 06:00N 37°37' E 023°39'5410.2
2017-Apr-12 00:44N 37°23' E 024°44'210.2
2017-Apr-12 00:31N 37°23' E 024°47'510.3
2017-Apr-12 00:00N 37°21' E 024°53'510.1
2017-Apr-11 23:31N 37°20' E 024°59'610.1
2017-Apr-11 22:54N 37°18' E 025°06'410.1
2017-Apr-11 22:31N 37°17' E 025°11'510.0
2017-Apr-11 22:01N 37°16' E 025°17'510.1
2017-Apr-11 21:30N 37°15' E 025°24'510.0
2017-Apr-11 21:01N 37°14' E 025°30'7 9.9
2017-Apr-11 20:20N 37°13' E 025°38'310.0
2017-Apr-11 20:01N 37°12' E 025°42'5 9.9
2017-Apr-11 19:31N 37°11' E 025°48'  
Track history (hours):
 
Tides and Currents Weather Stations Pressure Air Temp Water Temp Dewpoint Dewpoint Depression Visibility Wind Speed Wind Dir Waves Ship Positions

Antonios

Last reported at 2017-Apr-13 03:33 UTC. Time now 2017-Apr-26 04:12 UTC.
Position N 37°18' E 025°10'.
Warning: this ship's position is 13 days out of date.

Length 57 m; draft 4 m.

Type: Tanker. MMSI: 239191300.

Date/timePositionNaut miles runAvg speedWind from/ knotsBaromVisibWave heightAir tempDewpointWater temp
2017-Apr-13 03:33N 37°18' E 025°10'0 9.6
2017-Apr-13 03:31N 37°18' E 025°09'5 9.6
2017-Apr-13 03:01N 37°19' E 025°03'5 9.7
2017-Apr-13 02:30N 37°20' E 024°57'5 9.9
2017-Apr-13 02:00N 37°21' E 024°51'5 9.8
2017-Apr-13 01:30N 37°23' E 024°45'50 9.6
2017-Apr-12 20:16N 37°36' E 023°45'3 9.4
2017-Apr-12 20:00N 37°37' E 023°41'5 9.6
2017-Apr-12 19:30N 37°38' E 023°36'5 9.8
2017-Apr-12 19:00N 37°39' E 023°29'5 9.8
2017-Apr-12 18:31N 37°39' E 023°23'5 9.2
2017-Apr-12 18:00N 37°41' E 023°18'5 9.7
2017-Apr-12 17:30N 37°45' E 023°15'5 9.8
2017-Apr-12 17:00N 37°49' E 023°11'5 9.7
2017-Apr-12 16:31N 37°53' E 023°08'3 5.2
2017-Apr-12 15:58N 37°55' E 023°05'0 0.0
2017-Apr-12 15:29N 37°55' E 023°05'0 0.0
2017-Apr-12 14:58N 37°55' E 023°05'0 0.0
2017-Apr-12 13:57N 37°55' E 023°05'0 0.0
2017-Apr-12 13:30N 37°55' E 023°05'0 0.0
2017-Apr-12 13:00N 37°55' E 023°05'0 0.0
2017-Apr-12 12:30N 37°55' E 023°05'0 0.0
2017-Apr-12 11:59N 37°55' E 023°05'0 0.0
2017-Apr-12 11:30N 37°55' E 023°05'0 0.0
2017-Apr-12 11:00N 37°55' E 023°05'0 0.0
2017-Apr-12 10:30N 37°55' E 023°05'0 0.0
2017-Apr-12 09:54N 37°55' E 023°05'0 0.0
2017-Apr-12 09:31N 37°55' E 023°05'3 5.3
2017-Apr-12 09:01N 37°53' E 023°08'510.5
2017-Apr-12 08:31N 37°49' E 023°12'510.7
2017-Apr-12 08:01N 37°44' E 023°15'510.5
2017-Apr-12 07:30N 37°40' E 023°19'510.3
2017-Apr-12 07:01N 37°39' E 023°26'510.5
2017-Apr-12 06:30N 37°38' E 023°32'510.4
2017-Apr-12 06:00N 37°37' E 023°39'5410.2
2017-Apr-12 00:44N 37°23' E 024°44'210.2
2017-Apr-12 00:31N 37°23' E 024°47'510.3
2017-Apr-12 00:00N 37°21' E 024°53'510.1
2017-Apr-11 23:31N 37°20' E 024°59'610.1
2017-Apr-11 22:54N 37°18' E 025°06'410.1
2017-Apr-11 22:31N 37°17' E 025°11'510.0
2017-Apr-11 22:01N 37°16' E 025°17'510.1
2017-Apr-11 21:30N 37°15' E 025°24'510.0
2017-Apr-11 21:01N 37°14' E 025°30'7 9.9
2017-Apr-11 20:20N 37°13' E 025°38'310.0
2017-Apr-11 20:01N 37°12' E 025°42'5 9.9
2017-Apr-11 19:31N 37°11' E 025°48'  

Dump ship's entire track history